Airport View

Enter AWOS ICAO identifier for current METAR.

ex. KFNL

KSJX 040415Z AUTO 01005KT 10SM OVC060 15/11 A3009 RMK AO2 T01500105

4 Aug 2020 04:41

Frequency: 118.075

Phone: 231-448-3081

Other Area AWOS: KCVX - KISQ - KMGN - KPLN

TAF KPLN 032320Z 0400/0424 02007KT P6SM BKN045 FM041600 35009KT P6SM BKN050